Time;durP1;ratioP1;P1;durP2;ratioP2;P2;SDS_P1;SDS_P2;PMS_P1;PMS_P2;Temp;Humidity;BMP_temperature;BMP_pressure;BME280_temperature;BME280_humidity;BME280_pressure;Samples;Min_cycle;Max_cycle;Signal;HPM_P1;HPM_P2
2023/12/05 00:01:18;;;;;;;56.80;50.83;;;0.90;99.90;;;;;;5016052;28;20045;-81
2023/12/05 00:03:43;;;;;;;20.13;12.57;;;0.90;99.90;;;;;;5002760;28;20123;-81
2023/12/05 00:06:12;;;;;;;52.22;46.80;;;0.90;99.90;;;;;;5026908;28;20281;-81
2023/12/05 00:08:38;;;;;;;14.95;9.63;;;0.90;99.90;;;;;;5021250;28;20391;-81
2023/12/05 00:11:05;;;;;;;22.98;12.27;;;0.90;99.90;;;;;;5025372;28;20044;-81
2023/12/05 00:13:30;;;;;;;49.95;44.85;;;0.80;99.90;;;;;;5015566;28;20045;-81
2023/12/05 00:15:56;;;;;;;52.58;47.05;;;0.90;99.90;;;;;;5025940;28;20030;-81
2023/12/05 00:18:21;;;;;;;50.20;45.03;;;0.90;99.90;;;;;;5012469;28;20038;-81
2023/12/05 00:20:47;;;;;;;53.53;48.22;;;0.90;99.90;;;;;;5012309;28;20037;-81
2023/12/05 00:23:13;;;;;;;16.65;10.43;;;0.90;99.90;;;;;;5004278;28;20087;-81
2023/12/05 00:25:38;;;;;;;49.28;44.38;;;0.90;99.90;;;;;;5006245;28;20044;-81
2023/12/05 00:28:04;;;;;;;12.07;7.97;;;0.90;99.90;;;;;;5008068;28;20483;-81
2023/12/05 00:30:29;;;;;;;52.22;47.13;;;0.90;99.90;;;;;;5002919;28;20551;-81
2023/12/05 00:32:55;;;;;;;50.50;45.40;;;0.90;99.90;;;;;;4998938;28;20392;-81
2023/12/05 00:35:20;;;;;;;18.02;11.23;;;0.90;99.90;;;;;;5017359;28;20487;-81
2023/12/05 00:37:46;;;;;;;21.88;13.40;;;0.90;99.90;;;;;;5025812;28;20037;-81
2023/12/05 00:40:12;;;;;;;19.58;12.18;;;0.90;99.90;;;;;;5003154;28;20044;-81
2023/12/05 00:42:38;;;;;;;19.92;12.10;;;0.80;99.90;;;;;;5030265;28;20056;-81
2023/12/05 00:45:04;;;;;;;19.42;11.60;;;0.80;99.90;;;;;;5015311;28;20124;-81
2023/12/05 00:47:30;;;;;;;56.53;50.47;;;0.80;99.90;;;;;;5018717;28;20462;-81
2023/12/05 00:49:56;;;;;;;21.85;12.20;;;0.80;99.90;;;;;;5018519;28;20051;-80
2023/12/05 00:52:21;;;;;;;21.13;10.90;;;0.70;99.90;;;;;;5024505;28;20060;-80
2023/12/05 00:54:47;;;;;;;62.95;53.65;;;0.70;99.90;;;;;;5007466;28;20041;-81
2023/12/05 00:57:12;;;;;;;64.18;53.95;;;0.70;99.90;;;;;;4998758;28;20041;-81
2023/12/05 00:59:38;;;;;;;60.53;52.55;;;0.70;99.90;;;;;;4998595;28;20043;-80
2023/12/05 01:02:04;;;;;;;64.22;54.63;;;0.70;99.90;;;;;;5017650;28;20064;-80
2023/12/05 01:04:29;;;;;;;29.35;16.58;;;0.70;99.90;;;;;;5026376;28;20029;-80
2023/12/05 01:06:55;;;;;;;17.48;11.82;;;0.70;99.90;;;;;;4998637;28;20038;-80
2023/12/05 01:09:20;;;;;;;7.13;5.55;;;0.60;99.90;;;;;;5026316;28;20448;-80
2023/12/05 01:11:46;;;;;;;58.13;51.63;;;0.60;99.90;;;;;;5018213;28;20491;-80
2023/12/05 01:14:11;;;;;;;54.72;48.92;;;0.60;99.90;;;;;;5017727;28;20154;-80
2023/12/05 01:16:42;;;;;;;19.10;11.25;;;0.60;99.90;;;;;;5021704;28;20500;-81
2023/12/05 01:19:07;;;;;;;54.97;49.13;;;0.60;99.90;;;;;;5008226;28;20041;-80
2023/12/05 01:21:33;;;;;;;15.23;10.27;;;0.60;99.90;;;;;;5021823;28;20044;-80
2023/12/05 01:23:58;;;;;;;29.20;16.52;;;0.60;99.90;;;;;;5014376;28;20584;-80
2023/12/05 01:26:24;;;;;;;57.13;51.20;;;0.60;99.90;;;;;;4997857;28;20034;-80
2023/12/05 01:28:50;;;;;;;54.38;48.65;;;0.60;99.90;;;;;;5003411;28;20045;-80
2023/12/05 01:31:15;;;;;;;55.53;49.97;;;0.60;99.90;;;;;;4996553;28;20057;-80
2023/12/05 01:33:41;;;;;;;20.23;12.35;;;0.60;99.90;;;;;;5031540;28;20037;-80
2023/12/05 01:36:10;;;;;;;23.25;13.68;;;0.60;99.90;;;;;;5018210;28;20041;-80
2023/12/05 01:38:36;;;;;;;56.00;50.20;;;0.70;99.90;;;;;;5034310;28;20067;-80
2023/12/05 01:41:02;;;;;;;20.55;13.15;;;0.70;99.90;;;;;;5010906;28;20049;-80
2023/12/05 01:43:27;;;;;;;18.30;11.13;;;0.60;99.90;;;;;;5008217;28;20037;-80
2023/12/05 01:45:54;;;;;;;12.70;10.15;;;0.60;99.90;;;;;;4998082;28;20107;-80
2023/12/05 01:48:20;;;;;;;55.70;50.10;;;0.60;99.90;;;;;;5014599;28;20103;-80
2023/12/05 01:50:46;;;;;;;26.73;14.02;;;0.60;99.90;;;;;;5001551;28;20025;-80
2023/12/05 01:53:14;;;;;;;19.90;11.85;;;0.60;99.90;;;;;;5017588;28;20047;-80
2023/12/05 01:55:41;;;;;;;19.38;11.68;;;0.60;99.90;;;;;;5014142;28;20045;-80
2023/12/05 01:58:08;;;;;;;56.80;51.00;;;0.60;99.90;;;;;;5006092;28;20049;-80
2023/12/05 02:00:34;;;;;;;57.33;51.50;;;0.60;99.90;;;;;;5022072;28;20045;-81
2023/12/05 02:03:00;;;;;;;14.65;8.70;;;0.60;99.90;;;;;;5013807;28;20203;-80
2023/12/05 02:05:26;;;;;;;28.98;15.65;;;0.60;99.90;;;;;;4998036;28;20096;-80
2023/12/05 02:07:52;;;;;;;58.45;52.40;;;0.60;99.90;;;;;;5014062;28;20034;-80
2023/12/05 02:10:18;;;;;;;28.92;17.13;;;0.60;99.90;;;;;;5000154;28;20073;-81
2023/12/05 02:12:43;;;;;;;56.67;50.65;;;0.60;99.90;;;;;;5005647;28;20104;-80
2023/12/05 02:15:09;;;;;;;61.67;55.08;;;0.60;99.90;;;;;;5013776;28;20048;-81
2023/12/05 02:18:03;;;;;;;57.83;51.80;;;0.60;99.90;;;;;;5013968;28;20047;-80
2023/12/05 02:20:46;;;;;;;60.67;54.50;;;0.70;99.90;;;;;;5018052;28;20041;-81
2023/12/05 02:23:30;;;;;;;20.60;11.20;;;0.70;99.90;;;;;;5029769;28;20042;-81
2023/12/05 02:25:56;;;;;;;21.05;14.20;;;0.70;99.90;;;;;;5030149;28;20072;-81
2023/12/05 02:28:23;;;;;;;26.08;13.38;;;0.60;99.90;;;;;;5020738;28;20072;-81
2023/12/05 02:30:49;;;;;;;57.67;51.85;;;0.60;99.90;;;;;;5002455;28;20499;-81
2023/12/05 02:33:14;;;;;;;57.42;51.63;;;0.60;99.90;;;;;;5013621;28;20065;-80
2023/12/05 02:35:40;;;;;;;61.20;54.60;;;0.60;99.90;;;;;;4993444;28;20053;-81
2023/12/05 02:38:35;;;;;;;23.88;12.65;;;0.70;99.90;;;;;;4990025;28;20037;-81
2023/12/05 02:41:18;;;;;;;19.73;9.77;;;0.70;99.90;;;;;;5003646;28;20053;-81
2023/12/05 02:43:49;;;;;;;;;;;0.60;99.90;;;;;;5014538;28;20125;-81
2023/12/05 02:46:17;;;;;;;59.45;53.35;;;0.70;99.90;;;;;;5013776;28;20380;-81
2023/12/05 02:48:44;;;;;;;17.02;10.13;;;0.60;99.90;;;;;;5033535;28;20069;-81
2023/12/05 02:51:10;;;;;;;59.70;53.50;;;0.60;99.90;;;;;;5012100;28;20213;-81
2023/12/05 02:53:36;;;;;;;61.30;55.00;;;0.70;99.90;;;;;;5008035;28;20041;-81
2023/12/05 02:56:02;;;;;;;61.25;54.85;;;0.70;99.90;;;;;;5015516;28;20038;-81
2023/12/05 02:58:28;;;;;;;27.92;14.23;;;0.70;99.90;;;;;;5030073;28;20044;-81
2023/12/05 03:00:54;;;;;;;24.92;15.23;;;0.70;99.90;;;;;;5021276;28;20088;-81
2023/12/05 03:03:19;;;;;;;27.83;14.45;;;0.60;99.90;;;;;;5024960;28;20434;-81
2023/12/05 03:05:45;;;;;;;57.35;51.45;;;0.70;99.90;;;;;;5017094;28;20451;-81
2023/12/05 03:08:10;;;;;;;28.02;14.85;;;0.70;99.90;;;;;;5016677;28;20038;-81
2023/12/05 03:10:36;;;;;;;59.38;53.33;;;0.70;99.90;;;;;;5013199;28;20125;-81
2023/12/05 03:13:02;;;;;;;22.13;13.05;;;0.70;99.90;;;;;;5000388;28;20069;-81
2023/12/05 03:15:27;;;;;;;28.05;15.95;;;0.70;99.90;;;;;;5020798;28;20041;-81
2023/12/05 03:17:53;;;;;;;62.90;56.58;;;0.70;99.90;;;;;;5008789;28;20068;-81
2023/12/05 03:20:19;;;;;;;23.80;13.32;;;0.70;99.90;;;;;;5028886;28;20561;-82
2023/12/05 03:22:45;;;;;;;62.05;55.65;;;0.70;99.90;;;;;;5001991;28;20044;-81
2023/12/05 03:25:11;;;;;;;65.95;58.95;;;0.80;99.90;;;;;;5016187;28;20087;-81
2023/12/05 03:27:37;;;;;;;28.17;15.35;;;0.70;99.90;;;;;;5000499;28;20045;-81
2023/12/05 03:30:03;;;;;;;59.95;53.85;;;0.70;99.90;;;;;;5006944;28;20040;-81
2023/12/05 03:32:29;;;;;;;28.23;15.00;;;0.70;99.90;;;;;;5005225;28;20069;-81
2023/12/05 03:34:54;;;;;;;22.58;13.02;;;0.70;99.90;;;;;;5016820;28;20072;-81
2023/12/05 03:37:20;;;;;;;66.40;59.42;;;0.70;99.90;;;;;;5000439;28;20052;-82
2023/12/05 03:39:45;;;;;;;27.02;16.40;;;0.70;99.90;;;;;;5016954;28;20075;-81
2023/12/05 03:42:11;;;;;;;25.38;15.40;;;0.70;99.90;;;;;;4999706;28;20041;-82
2023/12/05 03:44:36;;;;;;;63.67;57.00;;;0.70;99.90;;;;;;5004639;28;20492;-82
2023/12/05 03:47:02;;;;;;;30.60;16.05;;;0.70;99.90;;;;;;5016251;28;20439;-82
2023/12/05 03:49:28;;;;;;;18.38;12.25;;;0.70;99.90;;;;;;5006095;28;20479;-82
2023/12/05 03:51:53;;;;;;;29.63;17.48;;;0.70;99.90;;;;;;5016437;28;20123;-82
2023/12/05 03:54:19;;;;;;;63.83;57.22;;;0.70;99.90;;;;;;5015989;28;20041;-81
2023/12/05 03:56:44;;;;;;;64.10;57.47;;;0.70;99.90;;;;;;4997021;28;20041;-81
2023/12/05 03:59:10;;;;;;;27.50;15.85;;;0.70;99.90;;;;;;5007706;28;20107;-81
2023/12/05 04:01:36;;;;;;;62.42;56.25;;;0.80;99.90;;;;;;5000228;28;20542;-81
2023/12/05 04:04:01;;;;;;;64.65;58.00;;;0.70;99.90;;;;;;4999420;28;20041;-81
2023/12/05 04:06:27;;;;;;;27.65;16.50;;;0.80;99.90;;;;;;4999327;28;20038;-81
2023/12/05 04:08:52;;;;;;;29.92;15.80;;;0.80;99.90;;;;;;4999473;28;20048;-81
2023/12/05 04:11:29;;;;;;;27.13;16.65;;;0.70;99.90;;;;;;5013910;28;20040;-81
2023/12/05 04:13:55;;;;;;;62.20;55.90;;;0.70;99.90;;;;;;5023750;28;20080;-81
2023/12/05 04:16:20;;;;;;;61.78;55.63;;;0.80;99.90;;;;;;5015608;28;20038;-81
2023/12/05 04:18:46;;;;;;;65.95;58.80;;;0.80;99.90;;;;;;5015719;28;20088;-82
2023/12/05 04:21:11;;;;;;;63.63;56.92;;;0.80;99.90;;;;;;5003712;28;20040;-81
2023/12/05 04:23:37;;;;;;;63.00;56.72;;;0.80;99.90;;;;;;4999328;28;20120;-81
2023/12/05 04:26:02;;;;;;;31.23;17.00;;;0.80;99.90;;;;;;5015729;28;20124;-81
2023/12/05 04:28:31;;;;;;;22.88;14.05;;;0.80;99.90;;;;;;5007306;28;20038;-81
2023/12/05 04:30:57;;;;;;;22.13;13.32;;;0.80;99.90;;;;;;5024866;28;20056;-81
2023/12/05 04:33:22;;;;;;;66.35;59.55;;;0.80;99.90;;;;;;4998897;28;20037;-81
2023/12/05 04:35:48;;;;;;;64.25;57.65;;;0.80;99.90;;;;;;4998092;28;20052;-81
2023/12/05 04:38:13;;;;;;;64.95;58.20;;;0.80;99.90;;;;;;5006369;28;20041;-81
2023/12/05 04:40:39;;;;;;;17.73;11.00;;;0.80;99.90;;;;;;5006884;28;20045;-81
2023/12/05 04:43:04;;;;;;;32.97;18.95;;;0.80;99.90;;;;;;4998754;28;20045;-81
2023/12/05 04:45:30;;;;;;;66.05;59.15;;;0.80;99.90;;;;;;4998750;28;20044;-81
2023/12/05 04:47:56;;;;;;;65.55;58.85;;;0.80;99.90;;;;;;4998988;28;20042;-81
2023/12/05 04:50:21;;;;;;;32.03;17.85;;;0.80;99.90;;;;;;5017777;28;20063;-82
2023/12/05 04:52:47;;;;;;;22.15;12.07;;;0.80;99.90;;;;;;5007577;28;20047;-81
2023/12/05 04:55:12;;;;;;;28.13;15.73;;;0.80;99.90;;;;;;5031291;28;20472;-82
2023/12/05 04:57:38;;;;;;;63.08;56.67;;;0.80;99.90;;;;;;5031522;28;20048;-81
2023/12/05 05:00:05;;;;;;;23.95;13.95;;;0.80;99.90;;;;;;5017536;28;20043;-81
2023/12/05 05:02:30;;;;;;;69.80;62.47;;;0.80;99.90;;;;;;5030425;28;20491;-81
2023/12/05 05:04:56;;;;;;;32.22;18.02;;;0.80;99.90;;;;;;5006440;28;20029;-81
2023/12/05 05:07:21;;;;;;;63.72;57.33;;;0.80;99.90;;;;;;4998415;28;20091;-81
2023/12/05 05:09:47;;;;;;;31.08;17.23;;;0.80;99.90;;;;;;5002124;28;20033;-82
2023/12/05 05:12:14;;;;;;;25.00;15.40;;;0.80;99.90;;;;;;5008296;28;20041;-82
2023/12/05 05:14:39;;;;;;;30.38;17.33;;;0.80;99.90;;;;;;5000394;28;20049;-81
2023/12/05 05:17:07;;;;;;;64.88;58.33;;;0.80;99.90;;;;;;5006742;28;20064;-81
2023/12/05 05:19:33;;;;;;;66.45;59.72;;;0.80;99.90;;;;;;5016175;28;20033;-82
2023/12/05 05:21:59;;;;;;;31.77;17.60;;;0.80;99.90;;;;;;5017471;28;20037;-81
2023/12/05 05:24:24;;;;;;;70.78;63.38;;;0.80;99.90;;;;;;5034534;28;20072;-81
2023/12/05 05:26:50;;;;;;;24.27;14.93;;;0.80;99.90;;;;;;5019828;28;20491;-81
2023/12/05 05:29:15;;;;;;;38.63;20.38;;;0.80;99.90;;;;;;5000800;28;20037;-81
2023/12/05 05:31:41;;;;;;;71.35;63.88;;;0.80;99.90;;;;;;5017575;28;20546;-81
2023/12/05 05:34:06;;;;;;;27.05;14.20;;;0.80;99.90;;;;;;5017911;28;20135;-82
2023/12/05 05:36:32;;;;;;;71.85;64.47;;;0.80;99.90;;;;;;5034142;28;20134;-81
2023/12/05 05:38:57;;;;;;;74.43;66.47;;;0.80;99.90;;;;;;5017791;28;20407;-81
2023/12/05 05:41:23;;;;;;;32.53;18.92;;;0.80;99.90;;;;;;4997920;28;20088;-81
2023/12/05 05:43:48;;;;;;;32.13;18.40;;;0.80;99.90;;;;;;4997762;28;20087;-81
2023/12/05 05:46:14;;;;;;;78.25;69.63;;;0.80;99.90;;;;;;5014268;28;20033;-81
2023/12/05 05:48:40;;;;;;;40.85;21.55;;;0.70;99.90;;;;;;4998241;28;20045;-81
2023/12/05 05:51:06;;;;;;;35.00;18.75;;;0.70;99.90;;;;;;5029300;28;20489;-81
2023/12/05 05:53:32;;;;;;;80.22;70.47;;;0.70;99.90;;;;;;5033686;28;20094;-81
2023/12/05 05:56:01;;;;;;;78.30;68.97;;;0.70;99.90;;;;;;5034577;28;20044;-81
2023/12/05 05:58:27;;;;;;;79.78;70.38;;;0.80;99.90;;;;;;5017831;28;20561;-81
2023/12/05 06:00:53;;;;;;;88.25;70.97;;;0.70;99.90;;;;;;5001915;28;20061;-80
2023/12/05 06:03:19;;;;;;;28.90;16.58;;;0.70;99.90;;;;;;5017069;28;20072;-81
2023/12/05 06:05:44;;;;;;;94.60;75.25;;;0.70;99.90;;;;;;4997399;28;20069;-81
2023/12/05 06:08:10;;;;;;;34.83;18.83;;;0.70;99.90;;;;;;4998046;28;20502;-81
2023/12/05 06:10:36;;;;;;;79.13;69.88;;;0.70;99.90;;;;;;4997886;28;20041;-81
2023/12/05 06:13:01;;;;;;;86.85;76.28;;;0.70;99.90;;;;;;5013770;28;20188;-80
2023/12/05 06:15:27;;;;;;;36.95;20.55;;;0.70;99.90;;;;;;4997552;28;20090;-81
2023/12/05 06:17:53;;;;;;;31.17;17.15;;;0.70;99.90;;;;;;5014045;28;20065;-80
2023/12/05 06:20:18;;;;;;;44.03;21.42;;;0.70;99.90;;;;;;5019369;28;20087;-81
2023/12/05 06:22:44;;;;;;;86.75;73.38;;;0.70;99.90;;;;;;5005549;28;20103;-81
2023/12/05 06:25:09;;;;;;;90.70;74.15;;;0.70;99.90;;;;;;5013702;28;20048;-81
2023/12/05 06:27:35;;;;;;;35.25;19.00;;;0.70;99.90;;;;;;4997554;28;20403;-81
2023/12/05 06:30:01;;;;;;;44.80;23.38;;;0.70;99.90;;;;;;4998380;28;20033;-81
2023/12/05 06:32:26;;;;;;;39.33;20.88;;;0.70;99.90;;;;;;5017739;28;20044;-80
2023/12/05 06:34:52;;;;;;;27.00;15.70;;;0.70;99.90;;;;;;5017505;28;20080;-81
2023/12/05 06:37:17;;;;;;;32.38;18.90;;;0.70;99.90;;;;;;5001434;28;20048;-80
2023/12/05 06:39:43;;;;;;;97.25;79.43;;;0.70;99.90;;;;;;5001398;28;20498;-80
2023/12/05 06:42:08;;;;;;;40.53;20.73;;;0.70;99.90;;;;;;5017162;28;20041;-80
2023/12/05 06:44:34;;;;;;;98.07;78.50;;;0.70;99.90;;;;;;5000901;28;20038;-81
2023/12/05 06:47:00;;;;;;;38.88;20.73;;;0.70;99.90;;;;;;5028056;28;20044;-81
2023/12/05 06:49:25;;;;;;;49.10;24.25;;;0.70;99.90;;;;;;5013748;28;20047;-81
2023/12/05 06:51:57;;;;;;;37.13;18.95;;;0.70;99.90;;;;;;5002016;28;20095;-81
2023/12/05 06:54:23;;;;;;;38.28;19.92;;;0.70;99.90;;;;;;4991138;28;20056;-81
2023/12/05 06:56:49;;;;;;;93.97;78.03;;;0.70;99.90;;;;;;5012359;28;20069;-81
2023/12/05 06:59:15;;;;;;;103.28;81.40;;;0.70;99.90;;;;;;5033897;28;20483;-81
2023/12/05 07:01:41;;;;;;;46.10;22.25;;;0.70;99.90;;;;;;5004942;28;20701;-81
2023/12/05 07:04:07;;;;;;;93.18;77.65;;;0.70;99.90;;;;;;5017539;28;20040;-81
2023/12/05 07:06:32;;;;;;;40.17;19.73;;;0.70;99.90;;;;;;5016875;28;20039;-81
2023/12/05 07:08:58;;;;;;;112.72;83.03;;;0.70;99.90;;;;;;5017684;28;20120;-81
2023/12/05 07:11:27;;;;;;;33.30;17.50;;;0.70;99.90;;;;;;5017380;28;20100;-80
2023/12/05 07:13:54;;;;;;;95.35;78.38;;;0.70;99.90;;;;;;5016988;28;20577;-81
2023/12/05 07:16:19;;;;;;;30.60;16.35;;;0.70;99.90;;;;;;5020219;28;20041;-80
2023/12/05 07:18:45;;;;;;;99.03;79.07;;;0.70;99.90;;;;;;5003734;28;20065;-80
2023/12/05 07:21:11;;;;;;;35.83;19.65;;;0.70;99.90;;;;;;5000504;28;20120;-81
2023/12/05 07:23:37;;;;;;;98.15;77.20;;;0.70;99.90;;;;;;5017092;28;20065;-81
2023/12/05 07:26:03;;;;;;;48.75;23.85;;;0.70;99.90;;;;;;5016855;28;20038;-81
2023/12/05 07:28:29;;;;;;;88.15;74.78;;;0.70;99.90;;;;;;5016523;28;20034;-80
2023/12/05 07:30:55;;;;;;;45.67;23.75;;;0.70;99.90;;;;;;5007905;28;20103;-80
2023/12/05 07:33:21;;;;;;;95.45;75.28;;;0.70;99.90;;;;;;5035927;28;20044;-81
2023/12/05 07:35:46;;;;;;;36.28;19.88;;;0.70;99.90;;;;;;5004051;28;20041;-81
2023/12/05 07:38:12;;;;;;;29.90;16.88;;;0.70;99.90;;;;;;5000336;28;20049;-81
2023/12/05 07:40:38;;;;;;;84.07;71.65;;;0.70;99.90;;;;;;5000017;28;20040;-80
2023/12/05 07:43:04;;;;;;;90.57;74.85;;;0.70;99.90;;;;;;5000109;28;20048;-81
2023/12/05 07:45:29;;;;;;;41.97;20.25;;;0.70;99.90;;;;;;4999896;28;20080;-81
2023/12/05 07:47:56;;;;;;;33.17;19.27;;;0.70;99.90;;;;;;5000134;28;20037;-81
2023/12/05 07:50:21;;;;;;;95.03;75.75;;;0.70;99.90;;;;;;5000098;28;20033;-81
2023/12/05 07:52:51;;;;;;;89.03;73.47;;;0.70;99.90;;;;;;5019345;28;20088;-80
2023/12/05 07:55:17;;;;;;;44.53;23.85;;;0.70;99.90;;;;;;5003900;28;20034;-80
2023/12/05 07:57:44;;;;;;;50.13;23.13;;;0.70;99.90;;;;;;4999772;28;20043;-81
2023/12/05 08:00:16;;;;;;;84.30;68.00;;;0.70;99.90;;;;;;5016496;28;20045;-80
2023/12/05 08:02:42;;;;;;;43.50;21.75;;;0.70;99.90;;;;;;5024350;28;20046;-80
2023/12/05 08:05:08;;;;;;;47.40;21.40;;;0.70;99.90;;;;;;5036555;28;20063;-80
2023/12/05 08:07:33;;;;;;;49.85;25.80;;;0.70;99.90;;;;;;5036811;28;20030;-81
2023/12/05 08:09:59;;;;;;;91.20;73.88;;;0.70;99.90;;;;;;5023889;28;20080;-80
2023/12/05 08:12:24;;;;;;;35.28;19.35;;;0.70;99.90;;;;;;5005539;28;20106;-80
2023/12/05 08:14:50;;;;;;;43.17;22.70;;;0.70;99.90;;;;;;4996425;28;20038;-81
2023/12/05 08:17:15;;;;;;;98.63;75.10;;;0.70;99.90;;;;;;5021254;28;20054;-80
2023/12/05 08:19:41;;;;;;;93.20;74.13;;;0.70;99.90;;;;;;5022211;28;20043;-80
2023/12/05 08:22:06;;;;;;;85.28;70.80;;;0.70;99.90;;;;;;4999402;28;20184;-81
2023/12/05 08:24:32;;;;;;;41.72;21.73;;;0.70;99.90;;;;;;5015962;28;20065;-80
2023/12/05 08:26:58;;;;;;;28.38;14.40;;;0.70;99.90;;;;;;5015699;28;20368;-80
2023/12/05 08:29:24;;;;;;;107.78;75.78;;;0.70;99.90;;;;;;5015602;28;20049;-79
2023/12/05 08:31:50;;;;;;;79.05;66.13;;;0.70;99.90;;;;;;5016897;28;20072;-80
2023/12/05 08:34:15;;;;;;;40.40;21.73;;;0.80;99.90;;;;;;5034528;28;20045;-80
2023/12/05 08:36:44;;;;;;;90.47;73.03;;;0.80;99.90;;;;;;5035251;28;20511;-81
2023/12/05 08:39:11;;;;;;;32.13;18.05;;;0.70;99.90;;;;;;5006301;28;20095;-81
2023/12/05 08:41:37;;;;;;;77.47;68.20;;;0.70;99.90;;;;;;5022038;28;20069;-80
2023/12/05 08:44:02;;;;;;;98.32;73.93;;;0.80;99.90;;;;;;5015264;28;20068;-80
2023/12/05 08:46:28;;;;;;;48.53;23.88;;;0.80;99.90;;;;;;4998829;28;20041;-83
2023/12/05 08:48:53;;;;;;;53.03;23.85;;;0.80;99.90;;;;;;5015338;28;20498;-81
2023/12/05 08:51:19;;;;;;;35.85;18.65;;;0.70;99.90;;;;;;5015140;28;20052;-80
2023/12/05 08:53:44;;;;;;;89.30;71.10;;;0.80;99.90;;;;;;5015741;28;20037;-82
2023/12/05 08:56:10;;;;;;;35.70;19.42;;;0.80;99.90;;;;;;5016850;28;20519;-84
2023/12/05 08:58:39;;;;;;;92.53;72.18;;;0.70;99.90;;;;;;5027755;28;20482;-83
2023/12/05 09:01:05;;;;;;;75.38;66.10;;;0.70;99.90;;;;;;5018124;28;20041;-83
2023/12/05 09:03:30;;;;;;;83.18;70.45;;;0.70;99.90;;;;;;5018144;28;20048;-82
2023/12/05 09:05:56;;;;;;;75.93;67.55;;;0.80;99.90;;;;;;4997406;28;20033;-84
2023/12/05 09:08:22;;;;;;;44.78;23.85;;;0.80;99.90;;;;;;5006674;28;20527;-83
2023/12/05 09:10:48;;;;;;;32.03;16.77;;;0.80;99.90;;;;;;5016679;28;20507;-83
2023/12/05 09:13:17;;;;;;;42.40;20.77;;;0.80;99.90;;;;;;5004250;28;20037;-84
2023/12/05 09:15:43;;;;;;;76.03;67.15;;;0.80;99.90;;;;;;5024643;28;20045;-80
2023/12/05 09:18:10;;;;;;;36.80;19.17;;;0.80;99.90;;;;;;4998878;28;20466;-79
2023/12/05 09:20:37;;;;;;;77.80;66.30;;;0.80;99.90;;;;;;5022447;28;20094;-79
2023/12/05 09:23:02;;;;;;;83.50;69.00;;;0.80;99.90;;;;;;4997666;28;20385;-79
2023/12/05 09:25:28;;;;;;;31.50;16.85;;;0.90;99.90;;;;;;4998379;28;20037;-79
2023/12/05 09:27:54;;;;;;;78.07;68.10;;;0.80;99.90;;;;;;5013297;28;20030;-79
2023/12/05 09:30:19;;;;;;;84.65;70.40;;;0.80;99.90;;;;;;5033461;28;20041;-79
2023/12/05 09:32:45;;;;;;;86.75;70.32;;;0.90;99.90;;;;;;5027672;28;20456;-79
2023/12/05 09:35:10;;;;;;;74.05;65.90;;;0.90;99.90;;;;;;5013698;28;20037;-79
2023/12/05 09:37:36;;;;;;;40.28;20.00;;;0.90;99.90;;;;;;5013051;28;20065;-79
2023/12/05 09:40:03;;;;;;;39.38;19.05;;;0.90;99.90;;;;;;5006156;28;20384;-79
2023/12/05 09:42:30;;;;;;;84.82;68.28;;;0.90;99.90;;;;;;5030402;28;20573;-79
2023/12/05 09:44:59;;;;;;;33.38;17.20;;;0.90;99.90;;;;;;5022706;28;20041;-79
2023/12/05 09:47:27;;;;;;;75.55;65.20;;;0.90;99.90;;;;;;5022074;28;20033;-78
2023/12/05 09:49:54;;;;;;;38.78;19.65;;;0.90;99.90;;;;;;5013548;28;20033;-78
2023/12/05 09:52:20;;;;;;;84.63;70.13;;;0.90;99.90;;;;;;5018953;28;20128;-79
2023/12/05 09:54:47;;;;;;;80.07;67.25;;;0.90;99.90;;;;;;5012576;28;20091;-78
2023/12/05 09:57:13;;;;;;;32.33;17.25;;;0.90;99.90;;;;;;5003267;28;20033;-78
2023/12/05 09:59:40;;;;;;;46.25;22.10;;;0.90;99.90;;;;;;5021844;28;20052;-79
2023/12/05 10:02:06;;;;;;;35.80;16.95;;;0.90;99.90;;;;;;5013703;28;20073;-78
2023/12/05 10:04:42;;;;;;;81.43;68.03;;;0.90;99.90;;;;;;5016941;28;20041;-79
2023/12/05 10:07:09;;;;;;;85.00;69.25;;;0.90;99.90;;;;;;5027221;28;20037;-78
2023/12/05 10:09:36;;;;;;;39.08;21.25;;;0.90;99.90;;;;;;5020879;28;20479;-78
2023/12/05 10:12:04;;;;;;;87.10;70.55;;;0.90;99.90;;;;;;4998218;28;20086;-78
2023/12/05 10:14:30;;;;;;;94.68;73.57;;;0.90;99.90;;;;;;5030032;28;20165;-78
2023/12/05 10:16:57;;;;;;;85.47;69.63;;;0.90;99.90;;;;;;5004990;28;20113;-79
2023/12/05 10:19:24;;;;;;;44.28;21.58;;;0.90;99.90;;;;;;5010443;28;20044;-78
2023/12/05 10:21:54;;;;;;;95.95;73.20;;;0.90;99.90;;;;;;5012981;28;20049;-79
2023/12/05 10:24:21;;;;;;;41.92;20.55;;;0.90;99.90;;;;;;5013094;28;20045;-78
2023/12/05 10:26:47;;;;;;;82.28;69.00;;;1.00;99.90;;;;;;5014790;28;20033;-79
2023/12/05 10:29:13;;;;;;;94.90;72.15;;;1.00;99.90;;;;;;5020207;28;20323;-79
2023/12/05 10:31:40;;;;;;;86.32;68.75;;;1.00;99.90;;;;;;5009299;28;20103;-79
2023/12/05 10:34:06;;;;;;;39.83;21.38;;;0.90;99.90;;;;;;5022590;28;20389;-78
2023/12/05 10:36:31;;;;;;;89.95;70.75;;;1.00;99.90;;;;;;5027386;28;20041;-79
2023/12/05 10:38:57;;;;;;;30.60;16.70;;;1.00;99.90;;;;;;5004561;28;20470;-79
2023/12/05 10:41:24;;;;;;;43.15;22.63;;;1.00;99.90;;;;;;5022491;28;20506;-78
2023/12/05 10:43:51;;;;;;;81.30;67.22;;;1.00;99.90;;;;;;5011560;28;20045;-78
2023/12/05 10:46:17;;;;;;;80.85;66.88;;;1.00;99.90;;;;;;5016303;28;20041;-79
2023/12/05 10:48:45;;;;;;;101.57;73.43;;;1.00;99.90;;;;;;5015250;28;20124;-79
2023/12/05 10:51:10;;;;;;;28.88;15.50;;;1.00;99.90;;;;;;5014256;28;20521;-78
2023/12/05 10:53:36;;;;;;;77.05;65.18;;;1.00;99.90;;;;;;5020523;28;20042;-79
2023/12/05 10:56:19;;;;;;;84.30;66.75;;;1.00;99.90;;;;;;5018192;28;20487;-78
2023/12/05 10:58:45;;;;;;;;;;;1.00;99.90;;;;;;5021021;28;20041;-78
2023/12/05 11:01:11;;;;;;;41.00;21.80;;;1.00;99.90;;;;;;5013154;28;20379;-78
2023/12/05 11:03:38;;;;;;;89.85;68.28;;;1.00;99.90;;;;;;5020438;28;20411;-77
2023/12/05 11:06:07;;;;;;;90.30;69.75;;;1.00;99.90;;;;;;5019918;28;20495;-79
2023/12/05 11:08:33;;;;;;;97.15;71.03;;;1.00;99.90;;;;;;5007104;28;20088;-79
2023/12/05 11:11:02;;;;;;;108.10;75.28;;;1.00;99.90;;;;;;5031167;28;20558;-79
2023/12/05 11:13:31;;;;;;;92.93;70.60;;;1.10;99.90;;;;;;5018959;28;20092;-79
2023/12/05 11:16:02;;;;;;;90.35;69.95;;;1.10;99.90;;;;;;5015501;28;20033;-79
2023/12/05 11:18:42;;;;;;;37.78;20.63;;;1.10;99.90;;;;;;5027758;28;20037;-79
2023/12/05 11:21:13;;;;;;;78.13;64.68;;;1.10;99.90;;;;;;5010626;28;20128;-80
2023/12/05 11:23:54;;;;;;;35.80;18.85;;;1.10;99.90;;;;;;5000794;28;20072;-82
2023/12/05 11:26:56;;;;;;;92.47;69.50;;;1.10;99.90;;;;;;4997360;28;20077;-82
2023/12/05 11:29:44;;;;;;;87.90;70.72;;;1.10;99.90;;;;;;5001468;28;20037;-80
2023/12/05 11:32:19;;;;;;;76.38;64.65;;;1.10;99.90;;;;;;4986025;28;20080;-80
2023/12/05 11:35:08;;;;;;;28.73;15.90;;;1.10;99.90;;;;;;5031303;28;20095;-80
2023/12/05 11:37:50;;;;;;;31.38;16.23;;;1.10;99.90;;;;;;5016929;28;20408;-80
2023/12/05 11:40:16;;;;;;;92.75;71.78;;;1.00;99.90;;;;;;5023806;28;20435;-80
2023/12/05 11:43:07;;;;;;;83.18;66.88;;;1.00;99.90;;;;;;5016418;28;20056;-80
2023/12/05 11:45:44;;;;;;;78.13;65.47;;;1.10;99.90;;;;;;5022773;28;20407;-79
2023/12/05 11:48:21;;;;;;;40.45;20.70;;;1.10;99.90;;;;;;5024288;28;20068;-80
2023/12/05 11:50:50;;;;;;;81.53;67.13;;;1.10;99.90;;;;;;5009483;28;20037;-81
2023/12/05 11:53:18;;;;;;;37.45;20.20;;;1.10;99.90;;;;;;5035194;28;20052;-79
2023/12/05 11:55:48;;;;;;;81.78;68.15;;;1.10;99.90;;;;;;5032998;28;20404;-84
2023/12/05 11:58:34;;;;;;;85.45;68.05;;;1.00;99.90;;;;;;5016464;28;20459;-82
2023/12/05 12:01:09;;;;;;;84.43;66.55;;;1.00;99.90;;;;;;5015043;28;20112;-81
2023/12/05 12:03:47;;;;;;;85.45;68.90;;;1.00;99.90;;;;;;5014162;28;20041;-84
2023/12/05 12:06:23;;;;;;;82.82;66.57;;;1.00;99.90;;;;;;5027497;28;20033;-81
2023/12/05 12:08:54;;;;;;;76.38;63.85;;;1.00;99.90;;;;;;5015719;28;20125;-81
2023/12/05 12:11:20;;;;;;;40.40;20.90;;;1.10;99.90;;;;;;5024129;28;20175;-82
2023/12/05 12:13:48;;;;;;;79.45;65.35;;;1.00;99.90;;;;;;4981496;28;20396;-84
2023/12/05 12:16:15;;;;;;;82.35;66.00;;;1.00;99.90;;;;;;4991563;28;20087;-83
2023/12/05 12:18:41;;;;;;;32.60;17.45;;;1.00;99.90;;;;;;4999843;28;20076;-83
2023/12/05 12:21:07;;;;;;;81.85;65.53;;;0.90;99.90;;;;;;4999574;28;20064;-80
2023/12/05 12:23:33;;;;;;;82.63;65.40;;;0.90;99.90;;;;;;5015338;28;20041;-81
2023/12/05 12:26:00;;;;;;;42.80;19.70;;;1.00;99.90;;;;;;4999007;28;20046;-80
2023/12/05 12:28:30;;;;;;;90.88;67.65;;;0.90;99.90;;;;;;4998670;28;20041;-80
2023/12/05 12:30:57;;;;;;;35.63;20.25;;;0.90;99.90;;;;;;5007419;28;20029;-80
2023/12/05 12:33:28;;;;;;;87.22;67.70;;;1.00;99.90;;;;;;4985583;28;20042;-80
2023/12/05 12:35:54;;;;;;;111.75;74.53;;;0.90;99.90;;;;;;5011341;28;20428;-80
2023/12/05 12:38:19;;;;;;;97.45;71.85;;;0.90;99.90;;;;;;5015281;28;20134;-80